createdAt,value
2023-05-14T00:01:57.879Z,12.09
2023-05-14T00:04:28.492Z,12.12
2023-05-14T00:06:59.090Z,12.14
2023-05-14T00:09:30.592Z,12.14
2023-05-14T00:12:03.459Z,12.15
2023-05-14T00:14:33.637Z,12.12
2023-05-14T00:17:03.874Z,12.13
2023-05-14T00:19:34.056Z,12.13
2023-05-14T00:22:04.266Z,12.10
2023-05-14T00:24:34.778Z,12.09
2023-05-14T00:27:08.063Z,12.06
2023-05-14T00:29:38.274Z,12.04
2023-05-14T00:32:09.835Z,12.03
2023-05-14T00:34:40.068Z,12.00
2023-05-14T00:37:10.338Z,12.01
2023-05-14T00:39:40.556Z,11.99
2023-05-14T00:42:15.742Z,11.95
2023-05-14T00:44:45.968Z,11.95
2023-05-14T00:47:16.394Z,11.89
2023-05-14T00:49:46.919Z,11.87
2023-05-14T00:52:18.319Z,11.84
2023-05-14T00:54:50.151Z,11.78
2023-05-14T00:57:23.189Z,11.75
2023-05-14T00:59:53.607Z,11.68
2023-05-14T01:02:24.040Z,11.66
2023-05-14T01:04:55.036Z,11.61
2023-05-14T01:07:33.366Z,11.56
2023-05-14T01:10:09.289Z,11.51
2023-05-14T01:12:52.790Z,11.45
2023-05-14T01:15:30.331Z,11.39
2023-05-14T01:18:03.413Z,11.34
2023-05-14T01:20:34.757Z,11.33
2023-05-14T01:23:07.704Z,11.30
2023-05-14T01:25:38.017Z,11.32
2023-05-14T01:28:14.515Z,11.31
2023-05-14T01:30:49.415Z,11.31
2023-05-14T01:33:21.892Z,11.25
2023-05-14T01:35:53.876Z,11.23
2023-05-14T01:38:27.874Z,11.28
2023-05-14T01:41:01.988Z,11.24
2023-05-14T01:43:36.148Z,11.27
2023-05-14T01:46:06.661Z,11.26
2023-05-14T01:48:39.246Z,11.22
2023-05-14T01:51:09.598Z,11.24
2023-05-14T01:53:42.422Z,11.23
2023-05-14T01:56:12.710Z,11.23
2023-05-14T01:58:42.878Z,11.26
2023-05-14T02:01:13.221Z,11.27
2023-05-14T02:03:43.684Z,11.28
2023-05-14T02:06:13.996Z,11.25
2023-05-14T02:08:46.902Z,11.29
2023-05-14T02:11:17.142Z,11.31
2023-05-14T02:13:47.407Z,11.29
2023-05-14T02:16:17.772Z,11.25
2023-05-14T02:18:48.088Z,11.25
2023-05-14T02:21:18.382Z,11.28
2023-05-14T02:23:51.527Z,11.32
2023-05-14T02:26:21.778Z,11.32
2023-05-14T02:28:52.057Z,11.29
2023-05-14T02:31:22.433Z,11.31
2023-05-14T02:33:53.298Z,11.30
2023-05-14T02:36:23.607Z,11.30
2023-05-14T02:39:00.290Z,11.30
2023-05-14T02:41:30.883Z,11.30
2023-05-14T02:44:01.095Z,11.31
2023-05-14T02:46:31.441Z,11.34
2023-05-14T02:49:02.058Z,11.37
2023-05-14T02:51:32.270Z,11.40
2023-05-14T02:54:05.122Z,11.48
2023-05-14T02:56:35.820Z,11.50
2023-05-14T02:59:06.462Z,11.54
2023-05-14T03:01:37.030Z,11.53
2023-05-14T03:04:08.108Z,11.51
2023-05-14T03:06:38.337Z,11.50
2023-05-14T03:09:11.256Z,11.45
2023-05-14T03:11:44.264Z,11.46
2023-05-14T03:14:16.738Z,11.46
2023-05-14T03:16:46.956Z,11.50
2023-05-14T03:19:17.277Z,11.57
2023-05-14T03:21:47.697Z,11.71
2023-05-14T03:24:20.566Z,11.82
2023-05-14T03:26:50.779Z,11.94
2023-05-14T03:29:21.044Z,12.09
2023-05-14T03:31:51.792Z,12.17
2023-05-14T03:34:22.048Z,12.29
2023-05-14T03:36:54.659Z,12.38
2023-05-14T03:39:27.761Z,12.48
2023-05-14T03:41:59.181Z,12.60
2023-05-14T03:44:29.339Z,12.72
2023-05-14T03:46:59.539Z,12.82
2023-05-14T03:49:29.761Z,12.90
2023-05-14T03:52:00.394Z,12.94
2023-05-14T03:54:33.283Z,12.99
2023-05-14T03:57:03.460Z,13.09
2023-05-14T03:59:35.899Z,13.26
2023-05-14T04:02:06.346Z,13.36
2023-05-14T04:04:36.641Z,13.37
2023-05-14T04:07:07.323Z,13.45
2023-05-14T04:09:40.161Z,13.63
2023-05-14T04:12:11.964Z,13.76
2023-05-14T04:14:42.406Z,13.92
2023-05-14T04:17:12.614Z,14.06
2023-05-14T04:19:42.852Z,14.25
2023-05-14T04:22:13.138Z,14.37
2023-05-14T04:24:46.148Z,14.56
2023-05-14T04:27:22.661Z,14.81
2023-05-14T04:29:53.239Z,15.26
2023-05-14T04:32:23.478Z,15.07
2023-05-14T04:34:53.723Z,15.74
2023-05-14T04:37:24.004Z,16.48
2023-05-14T04:39:58.975Z,16.78
2023-05-14T04:42:29.202Z,16.69
2023-05-14T04:44:59.407Z,16.35
2023-05-14T04:47:29.973Z,16.69
2023-05-14T04:50:00.494Z,17.72
2023-05-14T04:52:30.832Z,18.17
2023-05-14T04:55:03.694Z,18.14
2023-05-14T04:57:35.358Z,17.76
2023-05-14T05:00:09.984Z,17.57
2023-05-14T05:02:43.257Z,16.67
2023-05-14T05:05:13.834Z,17.37
2023-05-14T05:07:44.047Z,17.46
2023-05-14T05:10:17.009Z,16.49
2023-05-14T05:12:47.193Z,15.91
2023-05-14T05:15:17.363Z,16.33
2023-05-14T05:17:47.609Z,16.36
2023-05-14T05:20:18.148Z,16.25
2023-05-14T05:22:48.365Z,15.96
2023-05-14T05:25:21.527Z,16.38
2023-05-14T05:27:51.729Z,16.58
2023-05-14T05:30:23.853Z,17.22
2023-05-14T05:32:54.471Z,17.15
2023-05-14T05:35:25.802Z,17.62
2023-05-14T05:37:56.082Z,17.23
2023-05-14T05:40:28.961Z,17.43
2023-05-14T05:42:59.172Z,17.68
2023-05-14T05:45:29.444Z,16.55
2023-05-14T05:48:02.375Z,16.50
2023-05-14T05:50:34.664Z,16.15
2023-05-14T05:53:04.961Z,16.22
2023-05-14T05:55:37.906Z,15.83
2023-05-14T05:58:08.149Z,16.41
2023-05-14T06:00:38.334Z,16.48
2023-05-14T06:03:11.224Z,17.12
2023-05-14T06:05:41.641Z,16.99
2023-05-14T06:08:14.553Z,16.91
2023-05-14T06:10:47.870Z,16.79
2023-05-14T06:13:18.087Z,15.86
2023-05-14T06:15:48.453Z,16.27
2023-05-14T06:18:18.718Z,16.05
2023-05-14T06:20:49.014Z,16.17
2023-05-14T06:23:19.279Z,16.25
2023-05-14T06:25:53.149Z,15.98
2023-05-14T06:28:23.336Z,16.20
2023-05-14T06:30:54.232Z,16.59
2023-05-14T06:33:31.205Z,16.37
2023-05-14T06:36:01.826Z,16.46
2023-05-14T06:38:32.042Z,17.04
2023-05-14T06:41:04.918Z,17.18
2023-05-14T06:43:35.165Z,17.11
2023-05-14T06:46:05.458Z,17.13
2023-05-14T06:48:37.700Z,17.07
2023-05-14T06:51:08.010Z,17.45
2023-05-14T06:53:40.833Z,17.87
2023-05-14T06:56:14.914Z,18.11
2023-05-14T06:58:47.253Z,18.35
2023-05-14T07:01:17.687Z,17.59
2023-05-14T07:03:47.902Z,17.93
2023-05-14T07:06:18.455Z,17.71
2023-05-14T07:08:48.927Z,17.76
2023-05-14T07:11:22.487Z,17.80
2023-05-14T07:13:52.728Z,17.61
2023-05-14T07:16:23.113Z,18.07
2023-05-14T07:18:53.510Z,17.91
2023-05-14T07:21:24.030Z,17.41
2023-05-14T07:23:54.397Z,17.49
2023-05-14T07:26:27.407Z,17.65
2023-05-14T07:28:57.627Z,18.31
2023-05-14T07:31:27.949Z,18.87
2023-05-14T07:33:58.231Z,18.92
2023-05-14T07:36:28.763Z,19.22
2023-05-14T07:38:59.084Z,18.45
2023-05-14T07:41:31.955Z,18.79
2023-05-14T07:44:02.212Z,18.41
2023-05-14T07:46:32.444Z,18.54
2023-05-14T07:49:02.698Z,18.87
2023-05-14T07:51:33.773Z,19.20
2023-05-14T07:54:04.065Z,19.29
2023-05-14T07:56:36.998Z,19.44
2023-05-14T07:59:10.066Z,19.10
2023-05-14T08:01:40.322Z,18.81
2023-05-14T08:04:11.904Z,18.64
2023-05-14T08:06:42.258Z,18.79
2023-05-14T08:09:12.506Z,18.56
2023-05-14T08:11:45.318Z,19.13
2023-05-14T08:14:16.332Z,18.89
2023-05-14T08:16:46.683Z,18.81
2023-05-14T08:19:17.099Z,18.81
2023-05-14T08:21:47.470Z,19.63
2023-05-14T08:24:17.656Z,19.84
2023-05-14T08:26:50.891Z,19.37
2023-05-14T08:29:21.208Z,19.91
2023-05-14T08:31:52.809Z,19.91
2023-05-14T08:34:23.139Z,19.23
2023-05-14T08:36:56.533Z,19.35
2023-05-14T08:39:26.756Z,19.85
2023-05-14T08:42:01.624Z,19.93
2023-05-14T08:44:37.513Z,19.97
2023-05-14T08:47:08.657Z,20.48
2023-05-14T08:49:43.818Z,19.68
2023-05-14T08:52:14.384Z,19.73
2023-05-14T08:54:44.700Z,19.73
2023-05-14T08:57:18.137Z,20.53
2023-05-14T08:59:48.724Z,20.74
2023-05-14T09:02:19.938Z,20.81
2023-05-14T09:04:50.857Z,20.80
2023-05-14T09:07:21.743Z,20.53
2023-05-14T09:09:51.926Z,20.81
2023-05-14T09:12:25.358Z,20.53
2023-05-14T09:14:55.700Z,20.77
2023-05-14T09:17:29.222Z,20.97
2023-05-14T09:19:59.630Z,21.49
2023-05-14T09:22:33.225Z,22.01
2023-05-14T09:25:09.692Z,21.89
2023-05-14T09:27:42.734Z,21.13
2023-05-14T09:30:14.659Z,21.89
2023-05-14T09:32:47.527Z,21.78
2023-05-14T09:35:22.866Z,21.46
2023-05-14T09:37:54.831Z,21.64
2023-05-14T09:40:26.751Z,22.06
2023-05-14T09:43:02.114Z,21.89
2023-05-14T09:45:35.152Z,21.84
2023-05-14T09:48:06.207Z,21.87
2023-05-14T09:50:44.564Z,22.16
2023-05-14T09:53:14.956Z,22.46
2023-05-14T09:55:45.416Z,22.68
2023-05-14T09:58:18.323Z,22.36
2023-05-14T10:00:52.203Z,22.24
2023-05-14T10:03:24.949Z,22.21
2023-05-14T10:05:55.872Z,22.49
2023-05-14T10:08:30.041Z,22.15
2023-05-14T10:11:02.396Z,21.76
2023-05-14T10:13:45.559Z,20.41
2023-05-14T10:16:22.857Z,20.68
2023-05-14T10:18:57.336Z,20.62
2023-05-14T10:21:29.799Z,20.75
2023-05-14T10:24:00.670Z,20.32
2023-05-14T10:26:31.666Z,19.95
2023-05-14T10:29:04.544Z,19.84
2023-05-14T10:31:51.865Z,19.99
2023-05-14T10:34:37.522Z,19.86
2023-05-14T10:37:09.336Z,19.42
2023-05-14T10:39:47.602Z,19.73
2023-05-14T10:42:22.985Z,19.69
2023-05-14T10:44:58.999Z,19.84
2023-05-14T10:47:29.813Z,20.36
2023-05-14T10:50:02.182Z,20.23
2023-05-14T10:52:33.404Z,20.47
2023-05-14T10:55:10.402Z,20.35
2023-05-14T10:57:44.985Z,19.80
2023-05-14T11:00:19.065Z,20.01
2023-05-14T11:02:52.450Z,19.47
2023-05-14T11:05:22.801Z,19.36
2023-05-14T11:07:55.450Z,19.68
2023-05-14T11:10:26.158Z,19.83
2023-05-14T11:12:56.624Z,19.62
2023-05-14T11:15:30.177Z,19.78
2023-05-14T11:18:00.497Z,19.77
2023-05-14T11:20:32.954Z,19.29
2023-05-14T11:23:03.748Z,19.80
2023-05-14T11:25:34.473Z,19.60
2023-05-14T11:28:04.984Z,19.78
2023-05-14T11:30:39.896Z,20.21
2023-05-14T11:33:10.336Z,20.31
2023-05-14T11:35:42.314Z,19.88
2023-05-14T11:38:17.624Z,20.05
2023-05-14T11:40:55.747Z,20.31
2023-05-14T11:43:29.484Z,20.40
2023-05-14T11:46:05.254Z,20.20
2023-05-14T11:48:36.266Z,19.82
2023-05-14T11:51:12.953Z,19.95
2023-05-14T11:53:43.292Z,19.80
2023-05-14T11:56:14.609Z,19.78
2023-05-14T11:58:51.210Z,19.81
2023-05-14T12:01:24.260Z,19.70
2023-05-14T12:03:55.148Z,19.70
2023-05-14T12:06:33.295Z,19.67
2023-05-14T12:09:03.615Z,19.22
2023-05-14T12:11:34.858Z,19.31
2023-05-14T12:14:08.145Z,19.04
2023-05-14T12:16:47.011Z,19.35
2023-05-14T12:19:19.121Z,19.26
2023-05-14T12:21:51.361Z,19.34
2023-05-14T12:24:22.700Z,19.09
2023-05-14T12:26:55.682Z,19.01
2023-05-14T12:29:25.946Z,18.84
2023-05-14T12:32:01.161Z,18.94
2023-05-14T12:34:31.312Z,18.74
2023-05-14T12:37:01.542Z,18.61
2023-05-14T12:39:31.728Z,18.36
2023-05-14T12:42:02.044Z,18.56
2023-05-14T12:44:32.416Z,18.21
2023-05-14T12:47:05.399Z,18.26
2023-05-14T12:49:35.779Z,18.42
2023-05-14T12:52:22.737Z,18.52
2023-05-14T12:54:56.394Z,18.77
2023-05-14T12:57:27.971Z,18.40
2023-05-14T12:59:58.712Z,18.05
2023-05-14T13:02:31.945Z,18.03
2023-05-14T13:05:02.968Z,17.86
2023-05-14T13:07:33.616Z,17.84
2023-05-14T13:10:05.815Z,17.74
2023-05-14T13:12:36.600Z,17.76
2023-05-14T13:15:07.569Z,17.64
2023-05-14T13:17:41.591Z,17.66
2023-05-14T13:20:16.245Z,17.77
2023-05-14T13:22:46.486Z,17.77
2023-05-14T13:25:16.744Z,17.56
2023-05-14T13:27:47.001Z,17.88
2023-05-14T13:30:17.690Z,17.89
2023-05-14T13:32:51.377Z,18.07
2023-05-14T13:35:21.816Z,17.93
2023-05-14T13:37:52.242Z,18.17
2023-05-14T13:40:22.796Z,18.16
2023-05-14T13:42:53.113Z,18.19
2023-05-14T13:45:23.485Z,18.26
2023-05-14T13:47:56.852Z,17.84
2023-05-14T13:50:27.211Z,18.06
2023-05-14T13:52:57.532Z,18.14
2023-05-14T13:55:29.468Z,17.82
2023-05-14T13:58:04.534Z,17.85
2023-05-14T14:00:34.879Z,18.01
2023-05-14T14:03:08.672Z,18.04
2023-05-14T14:05:39.459Z,18.11
2023-05-14T14:08:22.793Z,18.00
2023-05-14T14:10:55.593Z,18.09
2023-05-14T14:13:26.353Z,17.94
2023-05-14T14:15:57.080Z,18.05
2023-05-14T14:18:30.127Z,17.94
2023-05-14T14:21:00.621Z,17.85
2023-05-14T14:23:30.902Z,17.95
2023-05-14T14:26:01.154Z,17.80
2023-05-14T14:28:31.590Z,17.71
2023-05-14T14:31:01.901Z,17.61
2023-05-14T14:33:34.791Z,17.61
2023-05-14T14:36:05.132Z,17.63
2023-05-14T14:38:35.529Z,17.66
2023-05-14T14:41:07.917Z,17.60
2023-05-14T14:43:38.543Z,17.51
2023-05-14T14:46:09.599Z,17.43
2023-05-14T14:48:42.728Z,17.33
2023-05-14T14:51:15.275Z,17.06
2023-05-14T14:53:45.935Z,17.05
2023-05-14T14:56:16.211Z,16.96
2023-05-14T14:58:46.434Z,16.99
2023-05-14T15:01:17.130Z,16.93
2023-05-14T15:03:50.191Z,16.84
2023-05-14T15:06:20.625Z,16.87
2023-05-14T15:08:50.883Z,16.74
2023-05-14T15:11:21.260Z,16.54
2023-05-14T15:13:51.828Z,16.43
2023-05-14T15:16:22.138Z,16.36
2023-05-14T15:18:55.091Z,16.48
2023-05-14T15:21:27.605Z,16.30
2023-05-14T15:23:57.856Z,16.28
2023-05-14T15:26:28.362Z,16.21
2023-05-14T15:28:59.231Z,16.28
2023-05-14T15:31:31.750Z,16.28
2023-05-14T15:34:04.667Z,16.17
2023-05-14T15:36:34.995Z,15.78
2023-05-14T15:39:05.288Z,15.87
2023-05-14T15:41:42.953Z,15.85
2023-05-14T15:44:15.926Z,15.84
2023-05-14T15:46:46.258Z,15.74
2023-05-14T15:49:19.400Z,15.69
2023-05-14T15:51:49.738Z,15.63
2023-05-14T15:54:19.994Z,15.58
2023-05-14T15:56:50.298Z,15.40
2023-05-14T15:59:20.551Z,15.42
2023-05-14T16:01:50.835Z,15.33
2023-05-14T16:04:23.678Z,15.17
2023-05-14T16:06:54.513Z,15.27
2023-05-14T16:09:27.705Z,15.19
2023-05-14T16:11:57.969Z,15.17
2023-05-14T16:14:28.181Z,15.20
2023-05-14T16:16:58.485Z,14.86
2023-05-14T16:19:31.522Z,14.98
2023-05-14T16:22:04.219Z,14.85
2023-05-14T16:24:34.425Z,14.66
2023-05-14T16:27:04.726Z,14.64
2023-05-14T16:29:34.995Z,14.77
2023-05-14T16:32:05.442Z,14.72
2023-05-14T16:34:38.265Z,14.80
2023-05-14T16:37:09.653Z,14.80
2023-05-14T16:39:40.980Z,14.84
2023-05-14T16:42:11.355Z,14.66
2023-05-14T16:44:41.656Z,14.61
2023-05-14T16:47:13.321Z,14.58
2023-05-14T16:49:47.165Z,14.59
2023-05-14T16:52:17.446Z,14.58
2023-05-14T16:54:47.849Z,14.53
2023-05-14T16:57:18.235Z,14.68
2023-05-14T16:59:48.492Z,14.72
2023-05-14T17:02:18.974Z,14.68
2023-05-14T17:04:51.916Z,14.51
2023-05-14T17:07:24.652Z,14.52
2023-05-14T17:09:55.015Z,14.51
2023-05-14T17:12:25.202Z,14.63
2023-05-14T17:14:55.525Z,14.57
2023-05-14T17:17:25.785Z,14.39
2023-05-14T17:19:58.746Z,14.46
2023-05-14T17:22:29.135Z,14.27
2023-05-14T17:24:59.455Z,14.37
2023-05-14T17:27:32.021Z,14.54
2023-05-14T17:30:02.362Z,14.44
2023-05-14T17:32:33.323Z,14.49
2023-05-14T17:35:09.920Z,14.51
2023-05-14T17:37:40.231Z,14.53
2023-05-14T17:40:15.118Z,14.24
2023-05-14T17:42:48.490Z,14.30
2023-05-14T17:45:20.911Z,14.46
2023-05-14T17:47:52.770Z,14.58
2023-05-14T17:50:25.763Z,14.26
2023-05-14T17:52:58.804Z,14.47
2023-05-14T17:55:29.877Z,14.41
2023-05-14T17:58:00.195Z,14.59
2023-05-14T18:00:30.586Z,14.56
2023-05-14T18:03:00.931Z,14.39
2023-05-14T18:05:34.243Z,14.55
2023-05-14T18:08:05.161Z,14.57
2023-05-14T18:10:36.374Z,14.66
2023-05-14T18:13:06.929Z,14.50
2023-05-14T18:15:39.036Z,14.40
2023-05-14T18:18:09.664Z,14.26
2023-05-14T18:20:42.568Z,14.16
2023-05-14T18:23:13.095Z,14.22
2023-05-14T18:25:43.650Z,14.29
2023-05-14T18:28:16.817Z,14.28
2023-05-14T18:30:47.795Z,14.02
2023-05-14T18:33:18.553Z,14.18
2023-05-14T18:35:51.915Z,14.35
2023-05-14T18:38:25.592Z,14.21
2023-05-14T18:40:56.280Z,14.44
2023-05-14T18:43:26.920Z,14.19
2023-05-14T18:45:57.851Z,14.11
2023-05-14T18:48:28.615Z,14.25
2023-05-14T18:51:01.871Z,14.43
2023-05-14T18:53:32.704Z,14.19
2023-05-14T18:56:05.005Z,14.18
2023-05-14T18:58:36.185Z,14.24
2023-05-14T19:01:06.930Z,13.98
2023-05-14T19:03:37.741Z,14.16
2023-05-14T19:06:11.773Z,14.15
2023-05-14T19:08:42.684Z,14.24
2023-05-14T19:11:13.687Z,14.30
2023-05-14T19:13:46.813Z,14.20
2023-05-14T19:16:17.645Z,14.26
2023-05-14T19:18:48.457Z,14.20
2023-05-14T19:21:21.655Z,13.96
2023-05-14T19:23:52.347Z,14.09
2023-05-14T19:26:22.944Z,14.06
2023-05-14T19:28:58.595Z,14.26
2023-05-14T19:31:29.481Z,14.39
2023-05-14T19:34:00.116Z,14.24
2023-05-14T19:36:34.538Z,14.10
2023-05-14T19:39:05.432Z,14.18
2023-05-14T19:41:36.024Z,14.49
2023-05-14T19:44:06.689Z,14.62
2023-05-14T19:46:37.528Z,14.67
2023-05-14T19:49:08.134Z,14.78
2023-05-14T19:51:41.418Z,14.82
2023-05-14T19:54:11.975Z,14.80
2023-05-14T19:56:42.857Z,14.73
2023-05-14T19:59:13.479Z,14.56
2023-05-14T20:01:44.384Z,14.79
2023-05-14T20:04:16.368Z,14.82
2023-05-14T20:06:49.527Z,14.63
2023-05-14T20:09:26.223Z,14.54
2023-05-14T20:11:56.477Z,14.75
2023-05-14T20:14:26.939Z,14.98
2023-05-14T20:16:58.193Z,15.00
2023-05-14T20:19:29.692Z,15.02
2023-05-14T20:22:05.467Z,15.18
2023-05-14T20:24:35.844Z,15.10
2023-05-14T20:27:06.128Z,14.95
2023-05-14T20:29:36.539Z,15.16
2023-05-14T20:32:07.316Z,15.19
2023-05-14T20:34:37.563Z,14.90
2023-05-14T20:37:10.513Z,14.84
2023-05-14T20:39:40.792Z,15.03
2023-05-14T20:42:11.139Z,14.67
2023-05-14T20:44:41.372Z,15.10
2023-05-14T20:47:12.889Z,15.19
2023-05-14T20:49:43.123Z,15.14
2023-05-14T20:52:16.247Z,15.24
2023-05-14T20:54:46.713Z,15.01
2023-05-14T20:57:19.401Z,14.75
2023-05-14T20:59:49.642Z,14.95
2023-05-14T21:02:19.936Z,14.88
2023-05-14T21:04:51.073Z,14.90
2023-05-14T21:07:24.294Z,15.07
2023-05-14T21:09:55.075Z,15.01
2023-05-14T21:12:25.874Z,15.10
2023-05-14T21:14:56.145Z,14.94
2023-05-14T21:17:26.423Z,15.01
2023-05-14T21:19:56.716Z,15.06
2023-05-14T21:22:29.934Z,14.93
2023-05-14T21:25:00.220Z,14.83
2023-05-14T21:27:30.493Z,14.88
2023-05-14T21:30:03.086Z,14.90
2023-05-14T21:32:35.406Z,14.95
2023-05-14T21:35:05.816Z,14.94
2023-05-14T21:37:39.912Z,15.01
2023-05-14T21:40:12.642Z,14.97
2023-05-14T21:42:43.418Z,15.00
2023-05-14T21:45:14.262Z,14.92
2023-05-14T21:47:44.652Z,14.93
2023-05-14T21:50:17.173Z,14.63
2023-05-14T21:52:49.965Z,14.76
2023-05-14T21:55:20.440Z,15.04
2023-05-14T21:57:51.241Z,14.83
2023-05-14T22:00:23.610Z,14.63
2023-05-14T22:02:54.852Z,14.80
2023-05-14T22:05:25.510Z,14.90
2023-05-14T22:07:58.637Z,14.87
2023-05-14T22:10:29.057Z,14.93
2023-05-14T22:12:59.412Z,14.94
2023-05-14T22:15:29.772Z,14.77
2023-05-14T22:18:00.000Z,14.71
2023-05-14T22:20:30.386Z,14.90
2023-05-14T22:23:03.194Z,14.98
2023-05-14T22:25:33.469Z,15.11
2023-05-14T22:28:03.693Z,15.01
2023-05-14T22:30:34.024Z,15.08
2023-05-14T22:33:04.380Z,15.02
2023-05-14T22:35:34.636Z,14.88
2023-05-14T22:38:07.748Z,15.05
2023-05-14T22:40:38.210Z,15.18
2023-05-14T22:43:08.491Z,15.16
2023-05-14T22:45:38.831Z,15.19
2023-05-14T22:48:09.657Z,15.22
2023-05-14T22:50:40.119Z,15.26
2023-05-14T22:53:12.971Z,15.27
2023-05-14T22:55:43.282Z,15.23
2023-05-14T22:58:13.634Z,15.15
2023-05-14T23:00:43.963Z,15.17
2023-05-14T23:03:14.186Z,15.17
2023-05-14T23:05:44.610Z,15.13
2023-05-14T23:08:17.515Z,15.09
2023-05-14T23:10:47.762Z,15.14
2023-05-14T23:13:19.373Z,15.11
2023-05-14T23:15:49.629Z,15.11
2023-05-14T23:18:19.939Z,15.16
2023-05-14T23:20:50.263Z,15.14
2023-05-14T23:23:23.164Z,15.15
2023-05-14T23:25:53.846Z,15.14
2023-05-14T23:28:24.267Z,15.10
2023-05-14T23:30:54.456Z,14.85
2023-05-14T23:33:24.782Z,14.95
2023-05-14T23:35:57.687Z,14.96
2023-05-14T23:38:30.686Z,14.98
2023-05-14T23:41:00.911Z,14.95
2023-05-14T23:43:31.808Z,14.98
2023-05-14T23:46:04.539Z,15.01
2023-05-14T23:48:34.891Z,14.87
2023-05-14T23:51:05.173Z,14.92
2023-05-14T23:53:37.966Z,14.87
2023-05-14T23:56:09.195Z,14.87
2023-05-14T23:58:39.433Z,14.74
